Station Historical Data
Daily Summary for November 9, 2017 Units:  Metric    English   Both
« Previous Day
Next Day »
Daily Weekly Monthly Yearly Custom
  High: Low: Average:
Temperature: 10.4 °C -1.9 °C 4 °C
Dew Point: 4.5 °C -9.8 °C -0.7 °C
Humidity: 89% 55% 72%
Wind Speed: 30.6km/h 0km/h 8.5km/h
Wind Gust: 49.9km/h - -
Wind- - WSW
Pressure: 1022.9 hPa 1011.4 hPa -
Precipitation: 0 mm    
Historical Graphs
 
 
Tabular Data for November 9, 2017
Time Temperature Dew Point Pressure Wind Wind Speed Wind Gust Humidity Rainfall Rate (Hourly)
00:04 -0.9 °C -2.8 °C 1022.9 hPa Calm     87% 0 mm
00:09 -0.9 °C -2.8 °C 1022.9 hPa Calm     87% 0 mm
00:14 -0.9 °C -2.8 °C 1022.9 hPa Calm     87% 0 mm
00:19 -0.9 °C -2.8 °C 1022.9 hPa Calm     87% 0 mm
00:24 -0.9 °C -2.8 °C 1022.9 hPa Calm     87% 0 mm
00:29 -0.9 °C -2.8 °C 1022.6 hPa Calm     87% 0 mm
00:34 -0.7 °C -2.6 °C 1022.6 hPa Calm     87% 0 mm
00:39 -0.7 °C -2.6 °C 1022.6 hPa Calm     87% 0 mm
00:44 -0.8 °C -2.7 °C 1022.6 hPa Calm     87% 0 mm
00:49 -0.9 °C -2.8 °C 1022.6 hPa Calm     87% 0 mm
00:54 -0.9 °C -2.8 °C 1022.6 hPa Calm     87% 0 mm
00:59 -1 °C -2.9 °C 1022.6 hPa Calm     87% 0 mm
01:04 -0.8 °C -2.6 °C 1022.6 hPa Calm     88% 0 mm
01:09 -0.7 °C -2.6 °C 1022.6 hPa Calm     87% 0 mm
01:14 -0.8 °C -2.7 °C 1022.6 hPa Calm     87% 0 mm
01:19 -1 °C -2.9 °C 1022.6 hPa Calm     87% 0 mm
01:24 -0.9 °C -2.8 °C 1022.6 hPa Calm     87% 0 mm
01:29 -0.8 °C -2.6 °C 1022.6 hPa Calm     88% 0 mm
01:34 -0.8 °C -2.5 °C 1022.6 hPa Calm     88% 0 mm
01:39 -0.8 °C -2.5 °C 1022.2 hPa Calm     88% 0 mm
01:44 -0.8 °C -2.6 °C 1022.2 hPa Calm     88% 0 mm
01:49 -0.8 °C -2.5 °C 1022.2 hPa Calm     88% 0 mm
01:54 -0.9 °C -2.8 °C 1022.2 hPa Calm     87% 0 mm
01:59 -0.8 °C -2.6 °C 1022.2 hPa Calm     88% 0 mm
02:04 -0.8 °C -2.6 °C 1022.2 hPa Calm     88% 0 mm
02:09 -0.8 °C -2.6 °C 1022.2 hPa Calm     88% 0 mm
02:14 -0.9 °C -2.6 °C 1022.2 hPa Calm     88% 0 mm
02:19 -0.9 °C -2.6 °C 1022.2 hPa Calm     88% 0 mm
02:24 -0.9 °C -2.6 °C 1022.2 hPa Calm     88% 0 mm
02:29 -0.9 °C -2.6 °C 1022.2 hPa Calm     88% 0 mm
02:34 -0.8 °C -2.6 °C 1022.2 hPa Calm     88% 0 mm
02:39 -0.7 °C -2.4 °C 1021.9 hPa Calm     88% 0 mm
02:44 -0.6 °C -2.3 °C 1021.9 hPa Calm     88% 0 mm
02:49 -0.6 °C -2.3 °C 1021.9 hPa Calm     88% 0 mm
02:54 -0.7 °C -2.4 °C 1021.9 hPa Calm     88% 0 mm
02:59 -0.7 °C -2.4 °C 1021.9 hPa Calm     88% 0 mm
03:04 -0.7 °C -2.4 °C 1021.9 hPa Calm     88% 0 mm
03:09 -0.6 °C -2.3 °C 1021.9 hPa Calm     88% 0 mm
03:14 -0.6 °C -2.2 °C 1021.9 hPa Calm     89% 0 mm
03:19 -0.5 °C -2.1 °C 1021.6 hPa Calm     89% 0 mm
03:24 -0.4 °C -2.1 °C 1021.6 hPa Calm     89% 0 mm
03:29 -0.3 °C -1.9 °C 1021.6 hPa Calm     89% 0 mm
03:34 -0.2 °C -1.8 °C 1021.6 hPa Calm     89% 0 mm
03:39 -0.1 °C -1.7 °C 1021.6 hPa Calm     89% 0 mm
03:44 0 °C -1.8 °C 1021.6 hPa Calm     88% 0 mm
03:49 0.1 °C -1.7 °C 1021.6 hPa Calm     88% 0 mm
03:54 0.1 °C -1.7 °C 1021.6 hPa Calm     88% 0 mm
03:59 0 °C -1.8 °C 1021.6 hPa Calm     88% 0 mm
04:04 0 °C -1.8 °C 1021.2 hPa Calm     88% 0 mm
04:09 0.1 °C -1.7 °C 1021.2 hPa Calm     88% 0 mm
04:14 0.1 °C -1.8 °C 1021.2 hPa Calm     87% 0 mm
04:19 0.2 °C -1.7 °C 1021.2 hPa Calm     87% 0 mm
04:24 0.2 °C -1.7 °C 1021.2 hPa Calm     87% 0 mm
04:29 0.2 °C -1.7 °C 1020.9 hPa Calm     87% 0 mm
04:34 0.1 °C -1.8 °C 1020.9 hPa Calm     87% 0 mm
04:39 0.1 °C -2 °C 1020.9 hPa Calm     86% 0 mm
04:44 0.1 °C -1.8 °C 1020.9 hPa Calm     87% 0 mm
04:49 0.2 °C -1.8 °C 1020.9 hPa Calm     86% 0 mm
04:54 0.3 °C -1.8 °C 1020.9 hPa Calm     86% 0 mm
04:59 0.3 °C -1.7 °C 1020.9 hPa Calm     86% 0 mm
05:04 0.4 °C -1.7 °C 1020.9 hPa Calm     86% 0 mm
05:09 0.4 °C -1.8 °C 1020.9 hPa Calm     85% 0 mm
05:14 0.4 °C -1.8 °C 1020.9 hPa Calm     85% 0 mm
05:19 0.4 °C -1.8 °C 1020.5 hPa Calm     85% 0 mm
05:24 0.4 °C -1.9 °C 1020.5 hPa Calm     84% 0 mm
05:29 0.4 °C -2 °C 1020.5 hPa Calm     84% 0 mm
05:34 0.4 °C -2.1 °C 1020.5 hPa Calm     83% 0 mm
05:39 0.5 °C -2.1 °C 1020.5 hPa Calm     83% 0 mm
05:44 0.5 °C -2.2 °C 1020.5 hPa Calm     82% 0 mm
05:49 0.6 °C -2.2 °C 1020.5 hPa Calm     82% 0 mm
05:54 0.6 °C -2.3 °C 1020.2 hPa Calm     81% 0 mm
05:59 0.6 °C -2.3 °C 1020.2 hPa Calm     81% 0 mm
06:04 0.7 °C -2.2 °C 1020.2 hPa Calm     81% 0 mm
06:09 0.7 °C -2.3 °C 1020.5 hPa Calm     80% 0 mm
06:14 0.8 °C -2.3 °C 1020.5 hPa Calm     80% 0 mm
06:19 0.9 °C -2.3 °C 1020.5 hPa Calm     79% 0 mm
06:24 1 °C -2.2 °C 1020.5 hPa Calm     79% 0 mm
06:29 1 °C -2.2 °C 1020.5 hPa Calm     79% 0 mm
06:34 0.9 °C -2.3 °C 1020.5 hPa Calm     79% 0 mm
06:39 1.2 °C -2.1 °C 1020.2 hPa Calm   6.4 km/h 79% 0 mm
06:44 1.3 °C -2.1 °C 1020.2 hPa Calm   6.4 km/h 78% 0 mm
06:49 1.5 °C -2.1 °C 1020.2 hPa Calm     77% 0 mm
06:54 1.6 °C -2.2 °C 1020.2 hPa Calm   8 km/h 76% 0 mm
06:59 1.8 °C -2.2 °C 1020.2 hPa Calm   1.6 km/h 75% 0 mm
07:04 1.9 °C -2.3 °C 1019.9 hPa Calm   4.8 km/h 74% 0 mm
07:09 2.1 °C -2.1 °C 1019.9 hPa SSW 1.6 km/h 6.4 km/h 74% 0 mm
07:14 2.2 °C -2.2 °C 1019.9 hPa SSW 3.2 km/h 8 km/h 73% 0 mm
07:19 2.3 °C -2.3 °C 1019.9 hPa SW 1.6 km/h 11.3 km/h 72% 0 mm
07:24 2.3 °C -2.2 °C 1019.9 hPa SSW 1.6 km/h 6.4 km/h 72% 0 mm
07:29 2.3 °C -2.2 °C 1019.9 hPa SW 4.8 km/h 9.7 km/h 72% 0 mm
07:34 2.4 °C -2.1 °C 1019.9 hPa SSW 3.2 km/h 9.7 km/h 72% 0 mm
07:39 2.5 °C -2.2 °C 1019.9 hPa SSW 1.6 km/h 8 km/h 71% 0 mm
07:44 2.6 °C -2.1 °C 1019.9 hPa Calm   6.4 km/h 71% 0 mm
07:49 2.8 °C -2.2 °C 1019.9 hPa Calm   9.7 km/h 70% 0 mm
07:54 2.9 °C -2.1 °C 1019.9 hPa Calm   6.4 km/h 70% 0 mm
07:59 2.9 °C -2 °C 1019.9 hPa SW 3.2 km/h 4.8 km/h 70% 0 mm
08:04 3.1 °C -2.1 °C 1019.5 hPa SW 1.6 km/h 8 km/h 69% 0 mm
08:09 3.2 °C -2.2 °C 1019.5 hPa SW 3.2 km/h 8 km/h 68% 0 mm
08:14 3.2 °C -2.1 °C 1019.5 hPa SW 1.6 km/h 6.4 km/h 68% 0 mm
08:19 3.3 °C -2 °C 1019.5 hPa SW 1.6 km/h 6.4 km/h 68% 0 mm
08:24 3.5 °C -1.7 °C 1019.5 hPa Calm   6.4 km/h 69% 0 mm
08:29 3.6 °C -1.6 °C 1019.5 hPa Calm     69% 0 mm
08:34 3.8 °C -1.6 °C 1019.5 hPa Calm   4.8 km/h 68% 0 mm
08:39 3.8 °C -1.2 °C 1019.5 hPa Calm   4.8 km/h 70% 0 mm
08:44 4 °C -1.2 °C 1019.5 hPa NW 1.6 km/h 1.6 km/h 69% 0 mm
08:49 4.2 °C -0.8 °C 1019.5 hPa Calm   3.2 km/h 70% 0 mm
08:54 4.3 °C -0.9 °C 1019.5 hPa Calm   1.6 km/h 69% 0 mm
08:59 4.3 °C -0.8 °C 1019.5 hPa Calm     69% 0 mm
09:04 4.4 °C -1.2 °C 1019.5 hPa Calm     67% 0 mm
09:09 4.7 °C -0.9 °C 1019.5 hPa West 1.6 km/h 4.8 km/h 67% 0 mm
09:14 4.9 °C -0.7 °C 1019.5 hPa WSW 3.2 km/h 8 km/h 67% 0 mm
09:19 5.3 °C -0.8 °C 1019.2 hPa SSW 4.8 km/h 9.7 km/h 65% 0 mm
09:24 5.4 °C -0.6 °C 1019.2 hPa SSW 4.8 km/h 11.3 km/h 65% 0 mm
09:29 5.5 °C -0.6 °C 1019.2 hPa SSW 3.2 km/h 11.3 km/h 65% 0 mm
09:34 5.6 °C -0.5 °C 1019.2 hPa SSW 4.8 km/h 8 km/h 65% 0 mm
09:39 5.6 °C -0.7 °C 1019.2 hPa SSW 1.6 km/h 8 km/h 64% 0 mm
09:44 5.6 °C -0.7 °C 1018.8 hPa SSW 3.2 km/h 6.4 km/h 64% 0 mm
09:49 5.6 °C -0.7 °C 1018.8 hPa South 3.2 km/h 8 km/h 64% 0 mm
09:54 5.7 °C -0.6 °C 1018.5 hPa South 3.2 km/h 8 km/h 64% 0 mm
09:59 5.8 °C -0.7 °C 1018.5 hPa SSW 3.2 km/h 11.3 km/h 63% 0 mm
10:04 5.9 °C -0.6 °C 1018.5 hPa SW 1.6 km/h 6.4 km/h 63% 0 mm
10:09 6.1 °C -0.6 °C 1018.2 hPa SSW 3.2 km/h 6.4 km/h 62% 0 mm
10:14 6.3 °C -0.4 °C 1018.2 hPa South 3.2 km/h 9.7 km/h 62% 0 mm
10:19 6.4 °C -0.4 °C 1018.2 hPa South 3.2 km/h 9.7 km/h 62% 0 mm
10:24 6.3 °C -0.7 °C 1018.2 hPa South 3.2 km/h 9.7 km/h 61% 0 mm
10:29 6.4 °C -0.3 °C 1018.2 hPa SSW 3.2 km/h 9.7 km/h 62% 0 mm
10:34 6.6 °C -0.2 °C 1017.8 hPa SSW 3.2 km/h 9.7 km/h 62% 0 mm
10:39 6.7 °C -0.1 °C 1017.8 hPa SSW 3.2 km/h 11.3 km/h 62% 0 mm
10:44 6.7 °C -0.3 °C 1017.8 hPa South 4.8 km/h 11.3 km/h 61% 0 mm
10:49 6.8 °C 0 °C 1017.5 hPa South 4.8 km/h 11.3 km/h 62% 0 mm
10:54 7.1 °C 0.1 °C 1017.5 hPa South 1.6 km/h 14.5 km/h 61% 0 mm
10:59 7.2 °C 0.2 °C 1017.5 hPa SW 3.2 km/h 12.9 km/h 61% 0 mm
11:04 7.4 °C 0.4 °C 1017.5 hPa SSW 4.8 km/h 12.9 km/h 61% 0 mm
11:09 7.6 °C 0.3 °C 1017.2 hPa South 9.7 km/h 9.7 km/h 60% 0 mm
11:14 7.6 °C 0.1 °C 1017.2 hPa SSW 4.8 km/h 11.3 km/h 59% 0 mm
11:19 7.8 °C 0.3 °C 1017.2 hPa SW 6.4 km/h 14.5 km/h 59% 0 mm
11:24 8.1 °C 0.6 °C 1016.8 hPa SW 8 km/h 19.3 km/h 59% 0 mm
11:29 8.4 °C 0.8 °C 1016.8 hPa SW 9.7 km/h 16.1 km/h 59% 0 mm
11:34 8.6 °C 1 °C 1016.5 hPa South 11.3 km/h 20.9 km/h 59% 0 mm
11:39 8.6 °C 0.8 °C 1016.1 hPa SSW 12.9 km/h 24.1 km/h 58% 0 mm
11:44 9.3 °C 1.7 °C 1016.1 hPa SW 9.7 km/h 24.1 km/h 59% 0 mm
11:49 9.8 °C 1.7 °C 1016.1 hPa SW 9.7 km/h 20.9 km/h 57% 0 mm
11:54 9.8 °C 1.2 °C 1016.1 hPa SSW 11.3 km/h 22.5 km/h 55% 0 mm
11:59 9.3 °C 0.9 °C 1015.8 hPa SSW 11.3 km/h 22.5 km/h 56% 0 mm
12:04 9 °C 0.9 °C 1015.8 hPa WSW 16.1 km/h 29 km/h 57% 0 mm
12:09 8.8 °C 0.9 °C 1015.8 hPa SSE 4.8 km/h 25.7 km/h 58% 0 mm
12:14 9.2 °C 1.6 °C 1015.8 hPa WSW 25.7 km/h 25.7 km/h 59% 0 mm
12:19 9.2 °C 1.6 °C 1015.5 hPa SW 9.7 km/h 25.7 km/h 59% 0 mm
12:24 8.8 °C 1.3 °C 1015.5 hPa SW 11.3 km/h 27.4 km/h 59% 0 mm
12:29 8.8 °C 1.7 °C 1015.5 hPa SW 12.9 km/h 27.4 km/h 61% 0 mm
12:34 8.7 °C 1.6 °C 1015.5 hPa SW 19.3 km/h 32.2 km/h 61% 0 mm
12:39 8.6 °C 1.5 °C 1015.1 hPa South 14.5 km/h 25.7 km/h 61% 0 mm
12:44 8.8 °C 1.7 °C 1015.1 hPa WSW 6.4 km/h 25.7 km/h 61% 0 mm
12:49 9.3 °C 2.2 °C 1015.1 hPa SW 14.5 km/h 25.7 km/h 61% 0 mm
12:54 9.8 °C 2.2 °C 1014.8 hPa SW 12.9 km/h 25.7 km/h 59% 0 mm
12:59 10.2 °C 2.3 °C 1014.8 hPa SW 11.3 km/h 25.7 km/h 58% 0 mm
13:04 9.9 °C 2.6 °C 1014.4 hPa SW 9.7 km/h 25.7 km/h 60% 0 mm
13:09 10.1 °C 2.4 °C 1014.4 hPa SW 12.9 km/h 33.8 km/h 59% 0 mm
13:14 10.4 °C 3 °C 1014.4 hPa SW 14.5 km/h 33.8 km/h 60% 0 mm
13:19 10.1 °C 2.2 °C 1014.1 hPa SSW 4.8 km/h 25.7 km/h 58% 0 mm
13:24 9.8 °C 2.4 °C 1014.1 hPa SW 16.1 km/h 32.2 km/h 60% 0 mm
13:29 9.7 °C 2.1 °C 1014.1 hPa SSW 24.1 km/h 32.2 km/h 59% 0 mm
13:34 9.6 °C 2.2 °C 1013.8 hPa South 9.7 km/h 29 km/h 60% 0 mm
13:39 9.6 °C 2.2 °C 1013.8 hPa SSW 20.9 km/h 29 km/h 60% 0 mm
13:44 9.4 °C 2.1 °C 1013.8 hPa SW 6.4 km/h 35.4 km/h 60% 0 mm
13:49 9.4 °C 1.3 °C 1013.8 hPa SSE 12.9 km/h 35.4 km/h 57% 0 mm
13:54 9.3 °C 1.7 °C 1013.8 hPa SSW 12.9 km/h 29 km/h 59% 0 mm
13:59 9.3 °C 1.7 °C 1013.8 hPa SW 14.5 km/h 32.2 km/h 59% 0 mm
14:04 9.3 °C 1.9 °C 1013.8 hPa SW 14.5 km/h 32.2 km/h 60% 0 mm
14:09 9.3 °C 2.2 °C 1013.4 hPa SW 14.5 km/h 32.2 km/h 61% 0 mm
14:14 9.2 °C 1.6 °C 1013.4 hPa SW 14.5 km/h 37 km/h 59% 0 mm
14:19 9.1 °C 1.2 °C 1013.1 hPa SW 16.1 km/h 37 km/h 58% 0 mm
14:24 9.1 °C 1.4 °C 1013.1 hPa SW 16.1 km/h 32.2 km/h 59% 0 mm
14:29 9.1 °C 1.4 °C 1013.4 hPa WSW 17.7 km/h 30.6 km/h 59% 0 mm
14:34 9.1 °C 1.2 °C 1013.4 hPa WSW 9.7 km/h 25.7 km/h 58% 0 mm
14:39 9 °C 1.2 °C 1013.4 hPa WSW 14.5 km/h 25.7 km/h 58% 0 mm
14:44 9 °C 1.2 °C 1013.1 hPa SW 16.1 km/h 32.2 km/h 58% 0 mm
14:49 9.1 °C 1.4 °C 1013.1 hPa WSW 11.3 km/h 27.4 km/h 59% 0 mm
14:54 9.1 °C 1.4 °C 1013.1 hPa WSW 9.7 km/h 30.6 km/h 59% 0 mm
14:59 9.1 °C 1.3 °C 1012.8 hPa SW 16.1 km/h 43.5 km/h 58% 0 mm
15:04 9.2 °C 1.3 °C 1013.1 hPa WSW 16.1 km/h 43.5 km/h 58% 0 mm
15:09 9.2 °C 1.6 °C 1012.8 hPa WSW 12.9 km/h 27.4 km/h 59% 0 mm
15:14 9.2 °C 1.6 °C 1012.8 hPa SW 12.9 km/h 29 km/h 59% 0 mm
15:19 9.2 °C 1.6 °C 1012.8 hPa WSW 12.9 km/h 29 km/h 59% 0 mm
15:24 9.2 °C 1.6 °C 1012.8 hPa WSW 17.7 km/h 30.6 km/h 59% 0 mm
15:29 9.2 °C 1.6 °C 1012.8 hPa SW 20.9 km/h 38.6 km/h 59% 0 mm
15:34 9.2 °C 1.6 °C 1012.8 hPa WSW 22.5 km/h 38.6 km/h 59% 0 mm
15:39 9.3 °C 1.4 °C 1012.8 hPa SW 19.3 km/h 38.6 km/h 58% 0 mm
15:44 9.3 °C 0.9 °C 1012.8 hPa WSW 16.1 km/h 37 km/h 56% 0 mm
15:49 9.2 °C 1.1 °C 1012.8 hPa West 11.3 km/h 37 km/h 57% 0 mm
15:54 9.2 °C 1.4 °C 1012.4 hPa SW 11.3 km/h 35.4 km/h 58% 0 mm
15:59 9.2 °C 1.6 °C 1012.4 hPa SSW 16.1 km/h 30.6 km/h 59% 0 mm
16:04 9.2 °C 1.6 °C 1012.4 hPa SW 14.5 km/h 35.4 km/h 59% 0 mm
16:09 9.2 °C 1.4 °C 1012.4 hPa SW 17.7 km/h 35.4 km/h 58% 0 mm
16:14 9.2 °C 1.4 °C 1012.4 hPa WSW 17.7 km/h 37 km/h 58% 0 mm
16:19 9.2 °C 1.4 °C 1012.1 hPa WSW 12.9 km/h 41.8 km/h 58% 0 mm
16:24 9.2 °C 1.6 °C 1012.1 hPa WSW 30.6 km/h 38.6 km/h 59% 0 mm
16:29 9.2 °C 2.1 °C 1012.1 hPa SSW 22.5 km/h 30.6 km/h 61% 0 mm
16:34 9.2 °C 2.3 °C 1012.1 hPa WSW 24.1 km/h 32.2 km/h 62% 0 mm
16:39 9.2 °C 2.3 °C 1012.1 hPa SW 17.7 km/h 37 km/h 62% 0 mm
16:44 9.2 °C 2.5 °C 1012.1 hPa SW 17.7 km/h 38.6 km/h 63% 0 mm
16:49 9.1 °C 2.2 °C 1012.1 hPa SW 19.3 km/h 41.8 km/h 62% 0 mm
16:54 9 °C 2.3 °C 1012.1 hPa WSW 20.9 km/h 41.8 km/h 63% 0 mm
16:59 8.9 °C 2.7 °C 1011.7 hPa WSW 20.9 km/h 43.5 km/h 65% 0 mm
17:04 8.8 °C 2.8 °C 1011.7 hPa WSW 22.5 km/h 49.9 km/h 66% 0 mm
17:09 8.6 °C 3.1 °C 1011.7 hPa West 25.7 km/h 33.8 km/h 68% 0 mm
17:14 8.5 °C 3.3 °C 1012.1 hPa West 20.9 km/h 38.6 km/h 70% 0.25 mm
17:19 8.3 °C 3.5 °C 1012.1 hPa SW 17.7 km/h 35.4 km/h 72% 0.25 mm
17:24 7.9 °C 3.7 °C 1012.1 hPa West 9.7 km/h 38.6 km/h 75% 0.51 mm
17:29 7.7 °C 3.9 °C 1012.1 hPa NW 8 km/h 33.8 km/h 77% 0.76 mm
17:34 7.5 °C 4.1 °C 1012.1 hPa WNW 16.1 km/h 33.8 km/h 79% 1.02 mm
17:39 7.3 °C 4.1 °C 1011.7 hPa WSW 9.7 km/h 20.9 km/h 80% 1.27 mm
17:44 7.3 °C 4.1 °C 1011.7 hPa WSW 12.9 km/h 27.4 km/h 80% 1.27 mm
17:49 7.3 °C 4.1 °C 1011.7 hPa WSW 14.5 km/h 35.4 km/h 80% 1.52 mm
17:54 7.3 °C 4.1 °C 1011.4 hPa SW 16.1 km/h 35.4 km/h 80% 1.52 mm
17:59 7.4 °C 4.3 °C 1011.7 hPa WSW 14.5 km/h 27.4 km/h 81% 1.52 mm
18:04 7.6 °C 4.5 °C 1011.7 hPa WNW 9.7 km/h 19.3 km/h 81% 1.78 mm
18:09 7.5 °C 4.3 °C 1011.7 hPa West 11.3 km/h 33.8 km/h 80% 2.03 mm
18:14 7.2 °C 4 °C 1012.1 hPa West 16.1 km/h 33.8 km/h 80% 2.29 mm
18:19 6.7 °C 3.5 °C 1012.1 hPa West 16.1 km/h 30.6 km/h 80% 2.79 mm
18:24 6.5 °C 3.5 °C 1012.1 hPa West 9.7 km/h 27.4 km/h 81% 2.79 mm
18:29 6.4 °C 3.4 °C 1012.1 hPa West 12.9 km/h 27.4 km/h 81% 2.54 mm
18:34 6.4 °C 3.2 °C 1011.7 hPa WSW 8 km/h 29 km/h 80% 2.29 mm
18:39 6.4 °C 3.1 °C 1011.7 hPa WSW 9.7 km/h 32.2 km/h 79% 2.03 mm
18:44 6.4 °C 2.9 °C 1012.1 hPa West 12.9 km/h 32.2 km/h 78% 2.03 mm
18:49 6.4 °C 2.9 °C 1012.1 hPa West 11.3 km/h 32.2 km/h 78% 1.78 mm
18:54 6.4 °C 2.9 °C 1012.1 hPa West 9.7 km/h 20.9 km/h 78% 1.78 mm
18:59 6.4 °C 2.5 °C 1012.1 hPa West 11.3 km/h 24.1 km/h 76% 2.03 mm
19:04 6.6 °C 2.4 °C 1012.1 hPa West 12.9 km/h 29 km/h 75% 1.78 mm
19:09 6.6 °C 2.5 °C 1012.1 hPa West 12.9 km/h 27.4 km/h 75% 1.52 mm
19:14 6.7 °C 2.2 °C 1011.7 hPa SW 16.1 km/h 33.8 km/h 73% 1.02 mm
19:19 6.8 °C 2.1 °C 1012.1 hPa West 16.1 km/h 33.8 km/h 72% 0.51 mm
19:24 6.8 °C 1.9 °C 1011.7 hPa West 16.1 km/h 38.6 km/h 71% 0.25 mm
19:29 6.8 °C 1.7 °C 1012.1 hPa NW 22.5 km/h 37 km/h 70% 0.25 mm
19:34 6.8 °C 1.7 °C 1012.1 hPa WNW 17.7 km/h 37 km/h 70% 0.25 mm
19:39 6.4 °C 1.4 °C 1012.4 hPa WNW 24.1 km/h 33.8 km/h 70% 0.25 mm
19:44 5.6 °C 0.9 °C 1012.8 hPa West 14.5 km/h 43.5 km/h 72% 0.25 mm
19:49 4.8 °C 0.6 °C 1013.1 hPa WSW 25.7 km/h 40.2 km/h 74% 0.25 mm
19:54 4.3 °C 0.4 °C 1013.4 hPa WNW 22.5 km/h 45.1 km/h 76% 0.25 mm
19:59 4 °C 0.5 °C 1013.4 hPa WNW 20.9 km/h 45.1 km/h 78% 0 mm
20:04 3.7 °C 0.2 °C 1013.4 hPa WNW 19.3 km/h 41.8 km/h 78% 0 mm
20:09 3.4 °C -0.4 °C 1013.4 hPa West 20.9 km/h 37 km/h 76% 0 mm
20:14 3.3 °C -0.6 °C 1013.4 hPa West 19.3 km/h 32.2 km/h 76% 0 mm
20:19 3.2 °C -0.8 °C 1013.4 hPa West 30.6 km/h 37 km/h 75% 0 mm
20:24 3.2 °C -0.8 °C 1013.4 hPa WNW 12.9 km/h 37 km/h 75% 0 mm
20:29 3.2 °C -0.7 °C 1013.8 hPa WNW 16.1 km/h 37 km/h 76% 0 mm
20:34 3.1 °C -0.8 °C 1013.8 hPa WNW 14.5 km/h 29 km/h 76% 0 mm
20:39 3 °C -0.7 °C 1014.1 hPa WNW 19.3 km/h 30.6 km/h 77% 0 mm
20:44 2.9 °C -0.7 °C 1014.1 hPa SW 12.9 km/h 35.4 km/h 77% 0 mm
20:49 2.9 °C -0.6 °C 1014.1 hPa WNW 11.3 km/h 27.4 km/h 78% 0 mm
20:54 2.8 °C -0.4 °C 1014.4 hPa WNW 16.1 km/h 27.4 km/h 79% 0 mm
20:59 2.7 °C -0.6 °C 1014.4 hPa WNW 8 km/h 20.9 km/h 79% 0 mm
21:04 2.6 °C -0.5 °C 1014.8 hPa NNW 11.3 km/h 24.1 km/h 80% 0 mm
21:14 2.2 °C -0.9 °C 1015.1 hPa NW 8 km/h 25.7 km/h 80% 0 mm
21:19 2 °C -1.1 °C 1015.1 hPa NNW 9.7 km/h 33.8 km/h 80% 0 mm
21:24 1.9 °C -1.3 °C 1015.1 hPa NW 8 km/h 24.1 km/h 79% 0 mm
21:29 1.9 °C -1.3 °C 1015.5 hPa NW 14.5 km/h 22.5 km/h 79% 0 mm
21:34 1.9 °C -1.6 °C 1015.8 hPa NW 8 km/h 24.1 km/h 78% 0 mm
21:39 1.9 °C -1.6 °C 1015.8 hPa NW 11.3 km/h 35.4 km/h 78% 0 mm
21:44 1.8 °C -1.8 °C 1016.1 hPa WNW 14.5 km/h 35.4 km/h 77% 0 mm
21:49 1.7 °C -2.1 °C 1016.1 hPa WNW 16.1 km/h 30.6 km/h 76% 0 mm
21:54 1.6 °C -2.3 °C 1016.5 hPa WNW 16.1 km/h 32.2 km/h 75% 0 mm
21:59 1.4 °C -2.7 °C 1016.5 hPa WNW 16.1 km/h 33.8 km/h 74% 0 mm
22:04 1.3 °C -3.1 °C 1016.8 hPa WNW 20.9 km/h 37 km/h 73% 0 mm
22:09 1.1 °C -3.6 °C 1017.2 hPa NW 17.7 km/h 35.4 km/h 71% 0 mm
22:14 0.8 °C -4.1 °C 1017.2 hPa NW 22.5 km/h 33.8 km/h 70% 0 mm
22:19 0.7 °C -4 °C 1017.2 hPa West 20.9 km/h 38.6 km/h 71% 0 mm
22:24 0.5 °C -4.2 °C 1017.5 hPa WNW 24.1 km/h 38.6 km/h 71% 0 mm
22:29 0.3 °C -4.3 °C 1017.5 hPa West 24.1 km/h 37 km/h 71% 0 mm
22:34 0.1 °C -4.7 °C 1018.2 hPa WNW 19.3 km/h 45.1 km/h 70% 0 mm
22:39 -0.2 °C -5.6 °C 1018.2 hPa WNW 22.5 km/h 45.1 km/h 67% 0 mm
22:44 -0.4 °C -6 °C 1018.2 hPa WNW 20.9 km/h 40.2 km/h 66% 0 mm
22:49 -0.6 °C -6.2 °C 1018.5 hPa WNW 19.3 km/h 40.2 km/h 66% 0 mm
22:54 -0.8 °C -6.6 °C 1018.5 hPa WNW 19.3 km/h 33.8 km/h 65% 0 mm
22:59 -0.9 °C -6.8 °C 1018.8 hPa WNW 4.8 km/h 29 km/h 64% 0 mm
23:04 -1 °C -7.4 °C 1018.8 hPa WNW 12.9 km/h 38.6 km/h 62% 0 mm
23:09 -1.2 °C -7.5 °C 1019.2 hPa WNW 17.7 km/h 38.6 km/h 62% 0 mm
23:14 -1.3 °C -7.6 °C 1019.2 hPa WNW 16.1 km/h 29 km/h 62% 0 mm
23:19 -1.4 °C -7.7 °C 1019.2 hPa WNW 12.9 km/h 30.6 km/h 62% 0 mm
23:24 -1.5 °C -8.1 °C 1019.5 hPa WNW 6.4 km/h 41.8 km/h 61% 0 mm
23:29 -1.6 °C -8.4 °C 1019.5 hPa West 9.7 km/h 33.8 km/h 60% 0 mm
23:34 -1.7 °C -8.5 °C 1019.5 hPa WNW 16.1 km/h 22.5 km/h 60% 0 mm
23:39 -1.8 °C -8.7 °C 1019.9 hPa WNW 14.5 km/h 27.4 km/h 59% 0 mm
23:44 -1.7 °C -8.9 °C 1019.9 hPa WNW 16.1 km/h 33.8 km/h 58% 0 mm
23:49 -1.8 °C -9.2 °C 1019.9 hPa WNW 19.3 km/h 35.4 km/h 57% 0 mm
23:54 -1.8 °C -9.4 °C 1019.9 hPa WNW 16.1 km/h 35.4 km/h 56% 0 mm
23:59 -1.9 °C -9.8 °C 1019.9 hPa NW 17.7 km/h 32.2 km/h 55% 0 mm
Buffalo, New York, USA
Compliments of Weather Underground - 2.5 mb